Time,TemperatureF,DewpointF,PressureIn,WindDirection,WindDirectionDegrees,WindSpeedMPH,WindSpeedGustMPH,Humidity,HourlyPrecipIn,Conditions,Clouds,dailyrainin,SoftwareType,DateUTC
2013-03-04 00:12:00,26.3,17.0,29.99,SE,141,9.0,12.0,69,0.00,,,0.00,weatherlink.com 1.10,2013-03-04 06:12:00,
2013-03-04 00:27:00,25.9,18.0,29.99,ESE,108,8.0,14.0,71,0.00,,,0.00,weatherlink.com 1.10,2013-03-04 06:27:00,
2013-03-04 00:42:00,25.4,19.0,29.99,SE,125,9.0,11.0,75,0.00,,,0.00,weatherlink.com 1.10,2013-03-04 06:42:00,
2013-03-04 00:57:00,25.1,19.0,29.99,SE,127,9.0,10.0,76,0.00,,,0.00,weatherlink.com 1.10,2013-03-04 06:57:00,
2013-03-04 01:12:00,24.9,19.0,29.99,SE,136,5.0,10.0,77,0.00,,,0.00,weatherlink.com 1.10,2013-03-04 07:12:00,
2013-03-04 01:27:00,24.6,19.0,30.00,East,86,5.0,11.0,80,0.00,,,0.00,weatherlink.com 1.10,2013-03-04 07:27:00,
2013-03-04 01:42:00,24.2,20.0,30.00,East,95,5.0,7.0,83,0.00,,,0.00,weatherlink.com 1.10,2013-03-04 07:42:00,
2013-03-04 01:57:00,24.2,20.0,30.00,ESE,108,7.0,9.0,83,0.00,,,0.00,weatherlink.com 1.10,2013-03-04 07:57:00,
2013-03-04 02:12:00,24.0,20.0,29.99,ESE,114,6.0,7.0,85,0.00,,,0.00,weatherlink.com 1.10,2013-03-04 08:12:00,
2013-03-04 02:27:00,24.0,20.0,29.99,ENE,70,6.0,7.0,86,0.00,,,0.00,weatherlink.com 1.10,2013-03-04 08:27:00,
2013-03-04 02:42:00,24.0,21.0,29.98,ESE,103,4.0,7.0,87,0.00,,,0.00,weatherlink.com 1.10,2013-03-04 08:42:00,
2013-03-04 02:57:00,24.2,21.0,29.98,SE,131,5.0,8.0,87,0.00,,,0.00,weatherlink.com 1.10,2013-03-04 08:57:00,
2013-03-04 03:13:00,24.3,21.0,29.98,ESE,103,6.0,9.0,87,0.00,,,0.00,weatherlink.com 1.10,2013-03-04 09:13:00,
2013-03-04 03:28:00,24.4,21.0,29.97,ESE,103,7.0,8.0,87,0.00,,,0.00,weatherlink.com 1.10,2013-03-04 09:28:00,
2013-03-04 03:43:00,24.5,21.0,29.97,East,89,5.0,9.0,87,0.00,,,0.00,weatherlink.com 1.10,2013-03-04 09:43:00,
2013-03-04 03:58:00,24.5,21.0,29.97,SE,126,6.0,9.0,87,0.00,,,0.00,weatherlink.com 1.10,2013-03-04 09:58:00,
2013-03-04 04:13:00,24.4,21.0,29.98,ESE,120,7.0,8.0,87,0.00,,,0.00,weatherlink.com 1.10,2013-03-04 10:13:00,
2013-03-04 04:28:00,24.2,21.0,29.98,ESE,108,7.0,8.0,87,0.00,,,0.00,weatherlink.com 1.10,2013-03-04 10:28:00,
2013-03-04 04:43:00,24.0,21.0,29.99,ESE,116,5.0,6.0,87,0.00,,,0.00,weatherlink.com 1.10,2013-03-04 10:43:00,
2013-03-04 04:58:00,23.8,21.0,29.99,SE,129,4.0,9.0,88,0.00,,,0.00,weatherlink.com 1.10,2013-03-04 10:58:00,
2013-03-04 05:13:00,23.6,21.0,30.00,ESE,114,6.0,7.0,88,0.00,,,0.00,weatherlink.com 1.10,2013-03-04 11:13:00,
2013-03-04 05:28:00,23.5,21.0,29.99,ESE,102,6.0,7.0,89,0.00,,,0.00,weatherlink.com 1.10,2013-03-04 11:28:00,
2013-03-04 05:43:00,23.5,21.0,29.98,East,89,7.0,9.0,89,0.00,,,0.00,weatherlink.com 1.10,2013-03-04 11:43:00,
2013-03-04 05:58:00,23.4,21.0,29.98,ESE,103,7.0,8.0,89,0.00,,,0.00,weatherlink.com 1.10,2013-03-04 11:58:00,
2013-03-04 06:13:00,23.4,21.0,29.98,ESE,115,8.0,8.0,89,0.00,,,0.00,weatherlink.com 1.10,2013-03-04 12:13:00,
2013-03-04 06:28:00,23.4,21.0,29.99,ENE,78,7.0,10.0,89,0.00,,,0.00,weatherlink.com 1.10,2013-03-04 12:28:00,
2013-03-04 06:43:00,23.5,21.0,29.98,East,95,8.0,9.0,89,0.00,,,0.00,weatherlink.com 1.10,2013-03-04 12:43:00,
2013-03-04 06:59:00,23.6,21.0,29.98,ESE,112,9.0,10.0,89,0.00,,,0.00,weatherlink.com 1.10,2013-03-04 12:59:00,
2013-03-04 07:13:00,23.6,21.0,29.98,East,100,6.0,10.0,89,0.00,,,0.00,weatherlink.com 1.10,2013-03-04 13:13:00,
2013-03-04 07:28:00,23.7,21.0,29.98,ESE,113,5.0,8.0,90,0.00,,,0.00,weatherlink.com 1.10,2013-03-04 13:28:00,
2013-03-04 07:43:00,23.8,21.0,29.98,ESE,114,6.0,7.0,90,0.00,,,0.00,weatherlink.com 1.10,2013-03-04 13:43:00,
2013-03-04 07:58:00,23.9,21.0,29.98,ESE,115,5.0,8.0,89,0.00,,,0.00,weatherlink.com 1.10,2013-03-04 13:58:00,
2013-03-04 08:13:00,24.0,21.0,29.98,East,101,7.0,8.0,89,0.00,,,0.00,weatherlink.com 1.10,2013-03-04 14:13:00,
2013-03-04 08:28:00,24.1,21.0,29.98,ESE,107,6.0,9.0,89,0.00,,,0.00,weatherlink.com 1.10,2013-03-04 14:28:00,
2013-03-04 08:43:00,24.1,21.0,29.98,ESE,106,5.0,9.0,89,0.00,,,0.00,weatherlink.com 1.10,2013-03-04 14:43:00,
2013-03-04 08:58:00,24.1,21.0,29.98,East,100,7.0,8.0,89,0.00,,,0.00,weatherlink.com 1.10,2013-03-04 14:58:00,
2013-03-04 09:13:00,24.2,21.0,29.98,SE,136,5.0,8.0,88,0.00,,,0.00,weatherlink.com 1.10,2013-03-04 15:13:00,
2013-03-04 09:28:00,24.2,21.0,29.98,East,93,7.0,8.0,88,0.00,,,0.00,weatherlink.com 1.10,2013-03-04 15:28:00,
2013-03-04 09:43:00,24.4,21.0,29.98,ESE,104,6.0,8.0,88,0.00,,,0.00,weatherlink.com 1.10,2013-03-04 15:43:00,
2013-03-04 09:58:00,24.6,21.0,29.98,ESE,112,7.0,8.0,87,0.00,,,0.00,weatherlink.com 1.10,2013-03-04 15:58:00,
2013-03-04 10:13:00,24.7,21.0,29.97,SE,136,6.0,9.0,87,0.00,,,0.00,weatherlink.com 1.10,2013-03-04 16:13:00,
2013-03-04 10:28:00,24.8,22.0,29.98,ESE,116,6.0,8.0,87,0.00,,,0.00,weatherlink.com 1.10,2013-03-04 16:28:00,
2013-03-04 10:43:00,25.0,22.0,29.98,ESE,103,4.0,8.0,87,0.00,,,0.00,weatherlink.com 1.10,2013-03-04 16:43:00,
2013-03-04 10:58:00,25.2,22.0,29.98,SE,134,6.0,9.0,86,0.00,,,0.00,weatherlink.com 1.10,2013-03-04 16:58:00,
2013-03-04 11:13:00,25.3,22.0,29.98,ESE,113,3.0,8.0,86,0.00,,,0.00,weatherlink.com 1.10,2013-03-04 17:13:00,
2013-03-04 11:28:00,25.6,22.0,29.99,SE,127,6.0,8.0,86,0.00,,,0.00,weatherlink.com 1.10,2013-03-04 17:28:00,
2013-03-04 11:43:00,25.6,22.0,29.98,ESE,121,6.0,9.0,86,0.00,,,0.00,weatherlink.com 1.10,2013-03-04 17:43:00,
2013-03-04 11:58:00,25.4,22.0,29.99,ESE,117,6.0,8.0,87,0.00,,,0.00,weatherlink.com 1.10,2013-03-04 17:58:00,
2013-03-04 12:13:00,25.5,23.0,29.99,ESE,120,6.0,8.0,88,0.00,,,0.00,weatherlink.com 1.10,2013-03-04 18:13:00,
2013-03-04 12:28:00,25.6,23.0,30.00,SE,140,5.0,8.0,88,0.00,,,0.00,weatherlink.com 1.10,2013-03-04 18:28:00,
2013-03-04 12:43:00,25.7,23.0,30.00,ESE,118,3.0,7.0,88,0.00,,,0.00,weatherlink.com 1.10,2013-03-04 18:43:00,
2013-03-04 12:58:00,25.7,22.0,30.00,ESE,117,3.0,7.0,87,0.00,,,0.00,weatherlink.com 1.10,2013-03-04 18:58:00,
2013-03-04 13:13:00,25.6,22.0,30.00,SE,124,4.0,7.0,87,0.00,,,0.00,weatherlink.com 1.10,2013-03-04 19:13:00,
2013-03-04 13:28:00,25.5,22.0,30.00,SE,139,3.0,9.0,87,0.00,,,0.00,weatherlink.com 1.10,2013-03-04 19:28:00,
2013-03-04 13:43:00,25.6,22.0,30.00,SE,141,4.0,8.0,86,0.00,,,0.00,weatherlink.com 1.10,2013-03-04 19:43:00,
2013-03-04 13:58:00,25.8,22.0,30.00,SE,141,6.0,9.0,86,0.00,,,0.00,weatherlink.com 1.10,2013-03-04 19:58:00,
2013-03-04 14:13:00,25.8,22.0,29.99,SSE,148,7.0,8.0,86,0.00,,,0.00,weatherlink.com 1.10,2013-03-04 20:13:00,
2013-03-04 14:28:00,25.8,22.0,29.99,ESE,110,7.0,9.0,86,0.00,,,0.00,weatherlink.com 1.10,2013-03-04 20:28:00,
2013-03-04 14:43:00,25.8,22.0,30.00,ESE,104,5.0,9.0,85,0.00,,,0.00,weatherlink.com 1.10,2013-03-04 20:43:00,
2013-03-04 14:58:00,25.8,22.0,29.99,East,98,9.0,9.0,85,0.00,,,0.00,weatherlink.com 1.10,2013-03-04 20:58:00,
2013-03-04 15:13:00,25.7,22.0,30.00,ESE,117,5.0,11.0,85,0.00,,,0.00,weatherlink.com 1.10,2013-03-04 21:13:00,
2013-03-04 15:28:00,25.7,22.0,30.00,East,101,7.0,11.0,86,0.00,,,0.00,weatherlink.com 1.10,2013-03-04 21:28:00,
2013-03-04 15:43:00,25.7,22.0,30.01,ESE,120,7.0,11.0,86,0.00,,,0.00,weatherlink.com 1.10,2013-03-04 21:43:00,
2013-03-04 15:58:00,25.7,22.0,30.01,ESE,112,2.0,7.0,85,0.00,,,0.00,weatherlink.com 1.10,2013-03-04 21:58:00,
2013-03-04 16:13:00,25.5,22.0,30.02,SE,127,5.0,10.0,85,0.00,,,0.00,weatherlink.com 1.10,2013-03-04 22:13:00,
2013-03-04 16:28:00,25.5,22.0,30.02,ESE,110,5.0,8.0,85,0.00,,,0.00,weatherlink.com 1.10,2013-03-04 22:28:00,
2013-03-04 16:43:00,25.5,22.0,30.02,ESE,119,9.0,10.0,85,0.00,,,0.00,weatherlink.com 1.10,2013-03-04 22:43:00,
2013-03-04 16:58:00,25.6,21.0,30.01,ESE,104,6.0,12.0,84,0.00,,,0.00,weatherlink.com 1.10,2013-03-04 22:58:00,
2013-03-04 17:13:00,25.7,22.0,30.03,ESE,110,5.0,8.0,84,0.00,,,0.00,weatherlink.com 1.10,2013-03-04 23:13:00,
2013-03-04 17:28:00,25.7,21.0,30.04,SE,140,3.0,7.0,83,0.00,,,0.00,weatherlink.com 1.10,2013-03-04 23:28:00,
2013-03-04 17:43:00,25.5,21.0,30.04,ESE,110,4.0,8.0,83,0.00,,,0.00,weatherlink.com 1.10,2013-03-04 23:43:00,
2013-03-04 17:58:00,25.2,21.0,30.05,East,101,4.0,5.0,84,0.00,,,0.00,weatherlink.com 1.10,2013-03-04 23:58:00,
2013-03-04 18:13:00,25.0,21.0,30.06,East,93,5.0,7.0,83,0.00,,,0.00,weatherlink.com 1.10,2013-03-05 00:13:00,
2013-03-04 18:28:00,24.8,20.0,30.07,East,100,5.0,8.0,83,0.00,,,0.00,weatherlink.com 1.10,2013-03-05 00:28:00,
2013-03-04 18:43:00,24.7,21.0,30.07,ESE,104,4.0,7.0,84,0.00,,,0.00,weatherlink.com 1.10,2013-03-05 00:43:00,
2013-03-04 18:59:00,24.6,20.0,30.08,East,98,6.0,6.0,84,0.00,,,0.00,weatherlink.com 1.10,2013-03-05 00:59:00,
2013-03-04 19:13:00,24.4,21.0,30.08,East,93,5.0,6.0,85,0.00,,,0.00,weatherlink.com 1.10,2013-03-05 01:13:00,
2013-03-04 19:28:00,24.2,20.0,30.08,East,94,7.0,7.0,85,0.00,,,0.00,weatherlink.com 1.10,2013-03-05 01:28:00,
2013-03-04 19:43:00,24.0,20.0,30.08,East,96,7.0,7.0,86,0.00,,,0.00,weatherlink.com 1.10,2013-03-05 01:43:00,
2013-03-04 19:59:00,23.8,20.0,30.09,ESE,112,6.0,7.0,86,0.00,,,0.00,weatherlink.com 1.10,2013-03-05 01:59:00,
2013-03-04 20:14:00,23.7,20.0,30.09,East,86,7.0,7.0,87,0.00,,,0.00,weatherlink.com 1.10,2013-03-05 02:14:00,
2013-03-04 20:29:00,23.6,21.0,30.11,East,94,6.0,7.0,88,0.00,,,0.00,weatherlink.com 1.10,2013-03-05 02:29:00,
2013-03-04 20:44:00,23.6,21.0,30.11,East,95,3.0,5.0,88,0.00,,,0.00,weatherlink.com 1.10,2013-03-05 02:44:00,
2013-03-04 20:59:00,23.6,21.0,30.12,East,87,4.0,5.0,88,0.00,,,0.00,weatherlink.com 1.10,2013-03-05 02:59:00,
2013-03-04 21:14:00,23.6,21.0,30.12,East,89,4.0,6.0,88,0.00,,,0.00,weatherlink.com 1.10,2013-03-05 03:14:00,
2013-03-04 21:29:00,23.6,21.0,30.11,East,83,4.0,5.0,88,0.00,,,0.00,weatherlink.com 1.10,2013-03-05 03:29:00,
2013-03-04 21:44:00,23.5,21.0,30.11,East,79,4.0,6.0,88,0.00,,,0.00,weatherlink.com 1.10,2013-03-05 03:44:00,
2013-03-04 21:59:00,23.4,20.0,30.12,East,81,4.0,6.0,88,0.00,,,0.00,weatherlink.com 1.10,2013-03-05 03:59:00,
2013-03-04 22:14:00,23.4,20.0,30.13,East,89,3.0,4.0,87,0.00,,,0.00,weatherlink.com 1.10,2013-03-05 04:14:00,
2013-03-04 22:29:00,23.4,20.0,30.14,East,86,4.0,5.0,87,0.00,,,0.00,weatherlink.com 1.10,2013-03-05 04:29:00,
2013-03-04 22:44:00,23.3,20.0,30.13,ENE,68,4.0,4.0,87,0.00,,,0.00,weatherlink.com 1.10,2013-03-05 04:44:00,
2013-03-04 22:59:00,23.2,20.0,30.14,ENE,57,4.0,5.0,88,0.00,,,0.00,weatherlink.com 1.10,2013-03-05 04:59:00,
2013-03-04 23:14:00,23.3,21.0,30.14,East,83,3.0,5.0,89,0.00,,,0.00,weatherlink.com 1.10,2013-03-05 05:14:00,
2013-03-04 23:29:00,23.2,21.0,30.14,East,80,5.0,6.0,89,0.00,,,0.00,weatherlink.com 1.10,2013-03-05 05:29:00,
2013-03-04 23:44:00,23.2,21.0,30.14,ENE,70,4.0,5.0,90,0.00,,,0.00,weatherlink.com 1.10,2013-03-05 05:44:00,
2013-03-04 23:59:00,23.2,21.0,30.14,ENE,76,3.0,5.0,90,0.00,,,0.00,weatherlink.com 1.10,2013-03-05 05:59:00,